Time;durP1;ratioP1;P1;durP2;ratioP2;P2;SDS_P1;SDS_P2;PMS_P1;PMS_P2;Temp;Humidity;BMP_temperature;BMP_pressure;BME280_temperature;BME280_humidity;BME280_pressure;Samples;Min_cycle;Max_cycle;Signal;HPM_P1;HPM_P2
2022/11/16 00:01:32;;;;;;;4.53;3.30;;;;;;;14.56;65.17;98714.94;5031225;28;20065;-76
2022/11/16 00:04:01;;;;;;;4.68;2.90;;;;;;;14.55;65.70;98716.94;5030883;28;20521;-75
2022/11/16 00:06:29;;;;;;;4.97;3.30;;;;;;;14.40;65.80;98713.16;5030655;28;20486;-76
2022/11/16 00:11:43;;;;;;;4.10;3.10;;;;;;;14.27;66.95;98705.38;5032101;28;20060;-76
2022/11/16 00:14:12;;;;;;;4.82;3.38;;;;;;;14.33;66.47;98701.84;5029470;28;20611;-76
2022/11/16 00:16:40;;;;;;;3.08;2.70;;;;;;;14.32;67.55;98699.44;5031652;28;20136;-75
2022/11/16 00:19:11;;;;;;;6.03;3.28;;;;;;;14.24;67.96;98695.75;5031875;28;20057;-76
2022/11/16 00:21:39;;;;;;;4.47;3.20;;;;;;;14.20;68.59;98694.91;5031630;28;20414;-75
2022/11/16 00:24:07;;;;;;;5.65;3.92;;;;;;;14.20;68.91;98700.53;5028813;28;20049;-75
2022/11/16 00:26:47;;;;;;;4.40;3.30;;;;;;;14.09;68.72;98692.00;5030879;28;20060;-75
2022/11/16 00:29:17;;;;;;;4.20;3.15;;;;;;;14.10;68.94;98693.59;5032146;28;20807;-75
2022/11/16 00:31:46;;;;;;;4.93;3.30;;;;;;;14.14;68.13;98693.66;5026561;28;20049;-75
2022/11/16 00:34:15;;;;;;;5.07;3.20;;;;;;;14.08;68.86;98693.16;5031449;28;20049;-76
2022/11/16 00:36:43;;;;;;;4.97;3.00;;;;;;;14.08;69.41;98687.56;5030928;28;20045;-76
2022/11/16 00:39:11;;;;;;;4.82;3.28;;;;;;;14.10;69.38;98685.19;5031685;28;20484;-76
2022/11/16 00:41:39;;;;;;;5.43;3.67;;;;;;;14.12;69.53;98682.03;5029090;28;20057;-76
2022/11/16 00:44:06;;;;;;;4.43;3.28;;;;;;;14.13;69.54;98687.25;5032336;28;20057;-76
2022/11/16 00:46:35;;;;;;;5.30;3.20;;;;;;;13.99;69.69;98684.28;5034621;28;20437;-76
2022/11/16 00:49:04;;;;;;;4.30;3.10;;;;;;;14.09;69.31;98683.59;5035221;28;20053;-76
2022/11/16 00:51:31;;;;;;;6.68;3.70;;;;;;;14.08;69.29;98676.38;5035389;28;20061;-75
2022/11/16 00:53:59;;;;;;;3.72;3.08;;;;;;;14.04;69.06;98689.50;5034667;28;20054;-76
2022/11/16 00:56:26;;;;;;;4.93;3.72;;;;;;;13.90;69.65;98675.34;5033399;28;20060;-76
2022/11/16 00:58:53;;;;;;;4.28;3.40;;;;;;;13.99;69.34;98678.66;5034927;28;20399;-75
2022/11/16 01:01:20;;;;;;;4.57;2.92;;;;;;;13.89;69.61;98676.53;5035647;28;20062;-75
2022/11/16 01:03:49;;;;;;;6.80;3.70;;;;;;;13.83;70.88;98675.25;5033841;28;20061;-76
2022/11/16 01:06:17;;;;;;;3.75;3.03;;;;;;;13.87;70.49;98665.72;5035021;28;20049;-75
2022/11/16 01:08:45;;;;;;;4.50;3.03;;;;;;;13.91;70.46;98674.16;5035333;28;20060;-77
2022/11/16 01:14:02;;;;;;;6.05;3.60;;;;;;;13.85;70.11;98661.69;5035136;28;20064;-75
2022/11/16 01:16:30;;;;;;;4.10;3.25;;;;;;;13.84;71.22;98663.69;5034603;28;20054;-75
2022/11/16 01:18:59;;;;;;;4.22;3.35;;;;;;;13.76;70.90;98660.00;5035050;28;20049;-76
2022/11/16 01:21:27;;;;;;;4.88;3.40;;;;;;;13.74;70.59;98656.78;5031772;28;20064;-75
2022/11/16 01:23:55;;;;;;;4.88;3.38;;;;;;;13.66;71.45;98663.47;5020021;28;20057;-76
2022/11/16 01:26:23;;;;;;;4.47;3.30;;;;;;;13.66;71.67;98649.47;5033678;28;20050;-76
2022/11/16 01:28:50;;;;;;;5.10;2.90;;;;;;;13.63;71.60;98655.00;5034255;28;20059;-75
2022/11/16 01:31:18;;;;;;;5.00;3.42;;;;;;;13.53;72.17;98645.31;5032612;28;20064;-75
2022/11/16 01:33:45;;;;;;;4.10;3.00;;;;;;;13.53;72.86;98643.31;5034159;28;20045;-74
2022/11/16 01:36:17;;;;;;;5.20;3.40;;;;;;;13.54;72.16;98635.72;5033221;28;20414;-75
2022/11/16 01:38:46;;;;;;;4.68;3.03;;;;;;;13.60;72.47;98640.59;5033102;28;20053;-74
2022/11/16 01:41:14;;;;;;;4.88;3.42;;;;;;;13.57;72.28;98634.97;5033644;28;20057;-74
2022/11/16 01:43:56;;;;;;;4.35;3.55;;;;;;;13.54;71.89;98638.50;5033494;28;20061;-76
2022/11/16 01:46:26;;;;;;;5.35;3.00;;;;;;;13.56;72.52;98633.34;5028284;28;20057;-74
2022/11/16 01:48:59;;;;;;;3.92;3.42;;;;;;;13.51;71.59;98639.28;5033031;28;20052;-75
2022/11/16 01:51:28;;;;;;;4.30;3.30;;;;;;;13.50;72.25;98629.28;5024770;28;20053;-77
2022/11/16 01:53:56;;;;;;;5.40;3.40;;;;;;;13.57;72.14;98634.97;5031545;28;20065;-76
2022/11/16 01:56:25;;;;;;;4.80;3.60;;;;;;;13.50;71.66;98632.91;5031900;28;20064;-77
2022/11/16 01:58:53;;;;;;;4.55;3.70;;;;;;;13.52;72.76;98621.31;5032977;28;20056;-76
2022/11/16 02:01:21;;;;;;;3.80;3.22;;;;;;;13.42;72.28;98624.75;5033798;28;20061;-77
2022/11/16 02:03:48;;;;;;;5.97;3.25;;;;;;;13.46;72.28;98625.63;5032686;28;20505;-77
2022/11/16 02:06:30;;;;;;;5.35;3.60;;;;;;;13.33;73.13;98625.88;5033467;28;20053;-75
2022/11/16 02:12:34;;;;;;;4.95;3.10;;;;;;;13.51;71.73;98619.72;5022856;28;20045;-76
2022/11/16 02:15:13;;;;;;;3.72;3.28;;;;;;;13.50;72.21;98618.09;5023068;28;20438;-74
2022/11/16 02:17:51;;;;;;;4.53;3.30;;;;;;;13.49;72.51;98610.88;5033722;28;20068;-76
2022/11/16 02:20:41;;;;;;;3.83;3.17;;;;;;;13.54;72.18;98602.97;5033290;28;20080;-76
2022/11/16 02:23:42;;;;;;;5.45;3.47;;;;;;;13.54;72.38;98607.75;5033265;28;20061;-77
2022/11/16 02:26:40;;;;;;;4.80;3.20;;;;;;;13.56;71.82;98600.56;5032077;28;20545;-77
2022/11/16 02:29:20;;;;;;;3.90;3.22;;;;;;;13.50;72.50;98598.50;5033597;28;20065;-77
2022/11/16 02:31:54;;;;;;;3.95;3.03;;;;;;;13.57;71.92;98605.00;5026340;28;20391;-77
2022/11/16 02:34:23;;;;;;;4.53;2.95;;;;;;;13.57;72.67;98602.19;5032548;28;20061;-76
2022/11/16 02:36:55;;;;;;;5.22;3.03;;;;;;;13.47;73.13;98602.06;5032507;28;20061;-76
2022/11/16 02:39:25;;;;;;;4.32;2.92;;;;;;;13.53;73.28;98598.56;5031361;28;20064;-75
2022/11/16 02:41:58;;;;;;;3.90;2.95;;;;;;;13.43;73.41;98599.22;5026581;28;20057;-78
2022/11/16 02:44:31;;;;;;;3.85;3.00;;;;;;;13.55;73.16;98603.78;5032026;28;20053;-75
2022/11/16 02:47:04;;;;;;;4.43;3.05;;;;;;;13.58;73.67;98600.19;5031196;28;20072;-77
2022/11/16 02:49:36;;;;;;;3.97;3.13;;;;;;;13.60;73.97;98607.03;5032471;28;20050;-77
2022/11/16 02:52:04;;;;;;;3.05;2.70;;;;;;;13.71;72.79;98596.00;5032916;28;20069;-76
2022/11/16 02:54:32;;;;;;;3.50;2.90;;;;;;;13.80;72.94;98598.50;5032846;28;20506;-77
2022/11/16 02:57:26;;;;;;;4.25;2.85;;;;;;;13.89;72.34;98610.16;5031585;28;20056;-77
2022/11/16 02:59:58;;;;;;;3.80;2.65;;;;;;;13.94;73.38;98597.81;5030797;28;20069;-78
2022/11/16 03:02:32;;;;;;;3.13;2.50;;;;;;;13.96;72.31;98606.66;5032651;28;20058;-76
2022/11/16 03:05:04;;;;;;;2.50;2.22;;;;;;;13.99;71.95;98611.50;5032308;28;20056;-77
2022/11/16 03:07:34;;;;;;;3.55;2.60;;;;;;;13.90;74.39;98610.97;5030389;28;20061;-77
2022/11/16 03:10:02;;;;;;;4.65;3.83;;;;;;;13.62;77.88;98619.84;5031533;28;20053;-77
2022/11/16 03:12:34;;;;;;;4.90;4.05;;;;;;;13.63;79.61;98613.03;5032272;28;20065;-77
2022/11/16 03:15:06;;;;;;;5.68;4.13;;;;;;;13.57;79.97;98619.00;5030804;28;20398;-77
2022/11/16 03:17:39;;;;;;;6.75;5.13;;;;;;;13.63;79.21;98619.47;5032450;28;20057;-77
2022/11/16 03:20:12;;;;;;;6.15;5.07;;;;;;;13.65;79.43;98624.66;5031256;28;20057;-76
2022/11/16 03:22:42;;;;;;;5.20;4.70;;;;;;;13.67;79.20;98611.09;5031546;28;20076;-76
2022/11/16 03:25:11;;;;;;;4.22;3.50;;;;;;;13.76;79.34;98615.22;5032167;28;20073;-77
2022/11/16 03:27:43;;;;;;;6.07;4.28;;;;;;;13.73;79.04;98602.00;5031819;28;20061;-76
2022/11/16 03:30:16;;;;;;;3.92;3.10;;;;;;;13.69;79.48;98598.38;5030578;28;20053;-77
2022/11/16 03:32:49;;;;;;;3.00;2.45;;;;;;;13.69;77.82;98595.56;5032694;28;20057;-76
2022/11/16 03:35:24;;;;;;;3.90;2.80;;;;;;;13.62;77.26;98589.88;5030790;28;20068;-77
2022/11/16 03:37:56;;;;;;;3.72;2.78;;;;;;;13.66;77.98;98593.50;5031594;28;20049;-77
2022/11/16 03:40:26;;;;;;;3.35;2.80;;;;;;;13.68;77.21;98587.53;5025846;28;20418;-77
2022/11/16 03:42:55;;;;;;;4.47;2.40;;;;;;;13.65;77.31;98574.31;5031410;28;20060;-82
2022/11/16 03:45:24;;;;;;;3.90;2.10;;;;;;;13.67;77.02;98572.75;5031085;28;20057;-81
2022/11/16 03:47:51;;;;;;;3.42;2.55;;;;;;;13.65;77.25;98575.13;5031601;28;20418;-82
2022/11/16 03:50:18;;;;;;;4.10;1.88;;;;;;;13.55;77.73;98587.78;5030646;28;20062;-83
2022/11/16 03:52:46;;;;;;;3.22;1.52;;;;;;;13.54;77.34;98574.19;5030873;28;20053;-80
2022/11/16 03:55:16;;;;;;;3.05;1.70;;;;;;;13.47;76.06;98566.50;5030351;28;20069;-80
2022/11/16 03:57:43;;;;;;;1.80;1.33;;;;;;;13.52;76.83;98565.38;5031021;28;20049;-82
2022/11/16 04:00:12;;;;;;;2.63;1.20;;;;;;;13.44;76.08;98564.50;5031415;28;20129;-83
2022/11/16 04:02:40;;;;;;;2.30;1.70;;;;;;;13.38;76.39;98566.81;5031926;28;20062;-82
2022/11/16 04:24:36;;;;;;;2.22;1.00;;;;;;;13.31;75.41;98600.28;5035658;28;20083;-81
2022/11/16 04:29:53;;;;;;;1.85;1.17;;;;;;;13.27;76.88;98593.81;5034753;28;20414;-83
2022/11/16 04:37:54;;;;;;;2.00;1.30;;;;;;;13.19;77.68;98581.72;5039113;28;20060;-81
2022/11/16 04:40:24;;;;;;;1.88;1.23;;;;;;;13.18;78.38;98585.66;5027928;28;20057;-82
2022/11/16 04:42:52;;;;;;;2.33;1.60;;;;;;;13.16;78.14;98584.44;5036017;28;20072;-83
2022/11/16 04:48:06;;;;;;;3.03;1.40;;;;;;;13.15;77.00;98608.81;5036382;28;20053;-82
2022/11/16 04:50:35;;;;;;;1.77;1.25;;;;;;;13.20;76.88;98600.06;5036286;28;20068;-82
2022/11/16 04:53:05;;;;;;;;;;;;;;;13.04;77.21;98601.44;5035704;28;20053;-81
2022/11/16 04:55:33;;;;;;;2.78;1.52;;;;;;;13.12;77.41;98603.16;5034362;28;19921;-82
2022/11/16 04:58:03;;;;;;;2.30;1.60;;;;;;;13.07;76.65;98606.28;5032817;28;20052;-82
2022/11/16 05:00:31;;;;;;;1.83;1.25;;;;;;;13.08;77.17;98602.28;5033469;28;20057;-82
2022/11/16 05:02:58;;;;;;;2.00;1.58;;;;;;;13.09;76.89;98601.13;5034262;28;20056;-81
2022/11/16 05:05:25;;;;;;;2.67;1.30;;;;;;;12.98;78.92;98610.16;5034687;28;20057;-82
2022/11/16 05:07:54;;;;;;;5.13;1.60;;;;;;;12.95;78.21;98618.47;5035120;28;20498;-82
2022/11/16 05:10:23;;;;;;;3.60;1.27;;;;;;;12.95;78.73;98615.69;5032812;28;20060;-83
2022/11/16 05:12:52;;;;;;;2.00;1.33;;;;;;;12.86;78.16;98618.75;5026694;28;20058;-83
2022/11/16 05:15:19;;;;;;;2.08;1.45;;;;;;;13.00;77.86;98607.78;5033031;28;20053;-81
2022/11/16 05:17:47;;;;;;;1.88;1.30;;;;;;;13.08;78.37;98607.88;5034865;28;20450;-81
2022/11/16 05:23:00;;;;;;;1.50;1.10;;;;;;;12.96;77.89;98612.53;5036408;28;20496;-82
2022/11/16 05:25:27;;;;;;;1.60;1.27;;;;;;;13.11;77.31;98612.75;5033550;28;20045;-81
2022/11/16 05:27:55;;;;;;;2.55;1.48;;;;;;;13.14;77.12;98611.97;5033301;28;20049;-82
2022/11/16 05:30:22;;;;;;;1.95;1.25;;;;;;;13.22;76.50;98613.69;5033186;28;20049;-82
2022/11/16 05:32:49;;;;;;;1.70;1.15;;;;;;;13.20;76.65;98627.22;5032993;28;20069;-82
2022/11/16 05:35:17;;;;;;;2.15;1.08;;;;;;;13.24;75.98;98633.69;5027689;28;20057;-82
2022/11/16 05:37:44;;;;;;;2.60;1.70;;;;;;;13.27;76.28;98632.94;5026547;28;20053;-82
2022/11/16 05:40:14;;;;;;;2.63;1.40;;;;;;;13.20;76.26;98632.81;5031442;28;20054;-81
2022/11/16 05:42:41;;;;;;;2.20;1.35;;;;;;;13.28;76.14;98633.75;5028655;28;20060;-82
2022/11/16 05:45:09;;;;;;;1.98;1.27;;;;;;;13.29;75.20;98635.38;5032733;28;20056;-82
2022/11/16 05:47:38;;;;;;;3.78;1.50;;;;;;;13.25;75.78;98637.28;5030201;28;20065;-82
2022/11/16 05:50:06;;;;;;;2.42;1.10;;;;;;;13.10;75.27;98633.47;5026834;28;20054;-82
2022/11/16 05:52:34;;;;;;;1.88;1.10;;;;;;;13.20;75.81;98635.63;5032265;28;20065;-82
2022/11/16 05:55:02;;;;;;;1.90;1.10;;;;;;;13.16;74.56;98627.19;5034498;28;20521;-81
2022/11/16 05:57:30;;;;;;;2.00;1.05;;;;;;;13.14;74.14;98637.13;5030910;28;20117;-81
2022/11/16 05:59:58;;;;;;;1.63;0.93;;;;;;;13.02;74.79;98648.53;5033962;28;20494;-82
2022/11/16 06:02:25;;;;;;;1.73;1.27;;;;;;;12.99;74.80;98656.47;5031864;28;20491;-82
2022/11/16 06:04:52;;;;;;;1.80;1.20;;;;;;;13.05;73.94;98661.75;5032480;28;20061;-82
2022/11/16 06:07:20;;;;;;;2.03;1.00;;;;;;;13.06;73.74;98663.34;5030714;28;20060;-82
2022/11/16 06:09:47;;;;;;;1.90;1.00;;;;;;;13.06;74.62;98661.38;5032752;28;20526;-82
2022/11/16 06:12:14;;;;;;;1.38;0.90;;;;;;;13.15;73.84;98663.91;5032997;28;20057;-82
2022/11/16 06:14:44;;;;;;;1.90;1.00;;;;;;;13.03;73.21;98667.72;5033370;28;20057;-82
2022/11/16 06:17:13;;;;;;;;;;;;;;;13.09;74.28;98683.00;5034073;28;20786;-83
2022/11/16 06:19:40;;;;;;;1.88;1.20;;;;;;;13.10;73.62;98673.44;5031750;28;19921;-82
2022/11/16 06:22:08;;;;;;;1.60;0.90;;;;;;;13.10;74.86;98672.59;5032153;28;20076;-83
2022/11/16 06:24:35;;;;;;;2.03;1.00;;;;;;;13.14;74.99;98677.06;5027255;28;20054;-82
2022/11/16 06:27:02;;;;;;;3.97;1.27;;;;;;;13.10;75.73;98678.19;5032155;28;20057;-82
2022/11/16 06:29:30;;;;;;;1.52;1.10;;;;;;;12.95;75.80;98682.75;5033362;28;20053;-81
2022/11/16 06:31:58;;;;;;;2.90;1.00;;;;;;;12.95;77.12;98685.56;5032880;28;20057;-81
2022/11/16 06:34:26;;;;;;;2.67;1.00;;;;;;;12.78;78.50;98687.66;5032326;28;20053;-82
2022/11/16 06:36:53;;;;;;;2.50;1.20;;;;;;;12.68;78.60;98681.91;5031787;28;20065;-81
2022/11/16 06:39:21;;;;;;;2.63;1.10;;;;;;;12.55;79.33;98698.03;5029397;28;20053;-82
2022/11/16 06:41:49;;;;;;;2.05;1.00;;;;;;;12.59;78.92;98691.34;5032863;28;20058;-84
2022/11/16 06:44:17;;;;;;;3.58;1.23;;;;;;;12.44;78.79;98699.84;5034047;28;20388;-83
2022/11/16 06:46:44;;;;;;;9.10;1.27;;;;;;;12.35;80.50;98700.06;5033418;28;20060;-82
2022/11/16 06:49:13;;;;;;;2.70;1.30;;;;;;;12.30;81.68;98700.34;5033799;28;20060;-82
2022/11/16 06:51:40;;;;;;;1.83;1.20;;;;;;;12.30;82.01;98700.34;5032592;28;20115;-82
2022/11/16 06:54:07;;;;;;;2.03;1.20;;;;;;;12.32;82.29;98695.22;5032533;28;21047;-82
2022/11/16 06:56:35;;;;;;;2.53;1.00;;;;;;;12.34;80.96;98695.66;5032574;28;20085;-82
2022/11/16 06:59:02;;;;;;;2.47;1.05;;;;;;;12.33;80.17;98706.03;5034806;28;20374;-80
2022/11/16 07:01:29;;;;;;;1.95;1.00;;;;;;;12.22;79.64;98710.59;5053709;28;20056;-84
2022/11/16 07:03:58;;;;;;;3.65;1.20;;;;;;;12.40;79.85;98716.50;5053385;28;20486;-81
2022/11/16 07:06:29;;;;;;;2.38;1.13;;;;;;;12.36;79.08;98708.06;5053866;28;20057;-82
2022/11/16 07:08:57;;;;;;;1.70;1.20;;;;;;;12.31;78.82;98713.97;5055000;28;20057;-83
2022/11/16 07:11:24;;;;;;;2.90;1.20;;;;;;;12.44;78.71;98713.78;5046035;28;20061;-82
2022/11/16 07:13:52;;;;;;;2.55;1.40;;;;;;;12.48;78.48;98721.06;5033749;28;20068;-82
2022/11/16 07:16:19;;;;;;;3.97;1.55;;;;;;;12.51;77.78;98720.31;5033309;28;20061;-82
2022/11/16 07:18:47;;;;;;;4.53;1.80;;;;;;;12.60;77.65;98734.06;5033961;28;20049;-85
2022/11/16 07:21:16;;;;;;;2.85;1.60;;;;;;;12.58;77.68;98736.41;5033859;28;20057;-85
2022/11/16 07:23:45;;;;;;;2.03;1.30;;;;;;;12.41;76.94;98740.47;5034417;28;20049;-85
2022/11/16 07:26:12;;;;;;;2.77;1.50;;;;;;;12.60;76.22;98739.63;5033566;28;20057;-84
2022/11/16 07:28:39;;;;;;;4.07;1.90;;;;;;;12.59;76.12;98747.19;5033673;28;20065;-84
2022/11/16 07:31:09;;;;;;;3.75;1.60;;;;;;;12.59;75.74;98741.59;5032570;28;20080;-83
2022/11/16 07:33:37;;;;;;;2.40;1.38;;;;;;;12.58;75.74;98748.38;5032903;28;20061;-83
2022/11/16 07:36:08;;;;;;;4.45;1.70;;;;;;;12.48;75.29;98748.97;5033036;28;20053;-83
2022/11/16 07:38:36;;;;;;;3.33;1.58;;;;;;;12.63;75.52;98754.84;5033270;28;20494;-83
2022/11/16 07:41:07;;;;;;;4.05;1.85;;;;;;;12.73;74.48;98754.25;5032516;28;20172;-83
2022/11/16 07:43:36;;;;;;;3.80;1.80;;;;;;;12.73;74.80;98763.41;5029916;28;20733;-83
2022/11/16 07:46:04;;;;;;;2.38;1.70;;;;;;;12.69;74.54;98754.16;5030863;28;20057;-80
2022/11/16 07:48:33;;;;;;;3.70;1.40;;;;;;;12.77;74.28;98766.28;5032746;28;20054;-82
2022/11/16 07:51:02;;;;;;;3.03;1.30;;;;;;;12.88;73.64;98767.28;5032854;28;20621;-85
2022/11/16 07:53:29;;;;;;;2.97;1.55;;;;;;;13.87;71.92;98765.69;5032495;28;20503;-84
2022/11/16 07:55:56;;;;;;;6.20;1.30;;;;;;;15.94;65.46;98771.78;5013249;28;20403;-84
2022/11/16 07:58:27;;;;;;;2.58;1.20;;;;;;;17.22;60.68;98771.41;5023307;28;20435;-79
2022/11/16 08:00:54;;;;;;;3.92;1.25;;;;;;;18.76;56.88;98769.44;5016836;28;20061;-81
2022/11/16 08:03:22;;;;;;;3.33;1.35;;;;;;;19.21;53.37;98769.56;5017512;28;20061;-80
2022/11/16 08:05:59;;;;;;;2.55;1.23;;;;;;;19.09;51.33;98770.03;5024521;28;20053;-81
2022/11/16 08:08:26;;;;;;;5.45;1.60;;;;;;;18.98;50.91;98770.94;5013708;28;20384;-82
2022/11/16 08:11:00;;;;;;;4.35;1.17;;;;;;;18.88;52.01;98766.19;5016189;28;20053;-81
2022/11/16 08:13:30;;;;;;;2.10;1.10;;;;;;;18.48;51.69;98778.81;5022221;28;20057;-80
2022/11/16 08:16:00;;;;;;;3.33;1.40;;;;;;;18.20;52.63;98778.53;5020662;28;20065;-81
2022/11/16 08:18:28;;;;;;;3.38;1.30;;;;;;;17.96;52.99;98776.59;5015461;28;20065;-80
2022/11/16 08:20:55;;;;;;;4.78;1.70;;;;;;;17.32;53.72;98780.25;5018438;28;20049;-79
2022/11/16 08:23:22;;;;;;;5.95;1.55;;;;;;;17.02;55.16;98782.22;5014712;28;20517;-79
2022/11/16 08:25:50;;;;;;;3.08;1.27;;;;;;;16.80;55.43;98789.00;5017733;28;20049;-79
2022/11/16 08:28:17;;;;;;;3.40;1.23;;;;;;;16.61;55.33;98782.50;5020093;28;20058;-79
2022/11/16 08:30:47;;;;;;;3.42;1.20;;;;;;;16.61;55.07;98787.34;5022789;28;20057;-81
2022/11/16 08:33:15;;;;;;;3.42;1.55;;;;;;;16.52;56.38;98795.31;5021423;28;20061;-80
2022/11/16 08:35:42;;;;;;;3.10;1.35;;;;;;;17.12;53.42;98791.91;5023875;28;20502;-80
2022/11/16 08:38:09;;;;;;;4.45;1.50;;;;;;;17.71;52.45;98793.50;5021310;28;20072;-80
2022/11/16 08:40:37;;;;;;;4.45;1.42;;;;;;;19.01;49.36;98789.88;5019545;28;20057;-79
2022/11/16 08:43:04;;;;;;;2.88;1.50;;;;;;;19.39;48.33;98800.50;5012152;28;20503;-79
2022/11/16 08:45:32;;;;;;;2.90;1.15;;;;;;;19.08;48.76;98808.75;5017068;28;20062;-79
2022/11/16 08:48:01;;;;;;;4.78;1.50;;;;;;;19.15;48.49;98814.38;5024252;28;20128;-80
2022/11/16 08:50:29;;;;;;;6.27;1.90;;;;;;;18.92;48.36;98812.09;5016480;28;20056;-79
2022/11/16 08:52:57;;;;;;;3.72;1.80;;;;;;;19.88;46.84;98818.25;5023695;28;20053;-79
2022/11/16 08:55:25;;;;;;;4.68;1.45;;;;;;;22.76;41.13;98817.59;5019929;28;20056;-79
2022/11/16 08:57:52;;;;;;;3.42;1.60;;;;;;;24.98;36.19;98816.88;5029808;28;20054;-79
2022/11/16 09:00:20;;;;;;;2.50;1.20;;;;;;;26.05;34.09;98804.84;5028982;28;20068;-81
2022/11/16 09:02:47;;;;;;;3.50;1.27;;;;;;;27.13;32.42;98818.84;5027921;28;20410;-80
2022/11/16 09:05:17;;;;;;;3.35;1.33;;;;;;;28.03;31.70;98812.34;5029112;28;20041;-81
2022/11/16 09:07:46;;;;;;;5.32;1.77;;;;;;;28.59;31.01;98807.47;5033718;28;20080;-81
2022/11/16 09:10:13;;;;;;;2.33;1.33;;;;;;;29.05;28.75;98821.72;5033717;28;20057;-82
2022/11/16 09:12:40;;;;;;;6.05;1.65;;;;;;;29.71;28.11;98820.22;5027859;28;20844;-81
2022/11/16 09:15:09;;;;;;;2.80;1.20;;;;;;;29.77;27.33;98828.97;5034270;28;20439;-80
2022/11/16 09:17:36;;;;;;;4.13;1.70;;;;;;;30.30;25.80;98819.69;5032161;28;20062;-80
2022/11/16 09:20:05;;;;;;;2.63;1.33;;;;;;;30.23;26.47;98826.59;5031862;28;20053;-81
2022/11/16 09:22:35;;;;;;;3.22;1.10;;;;;;;30.88;25.85;98818.25;5032630;28;20080;-78
2022/11/16 09:25:02;;;;;;;3.55;1.30;;;;;;;31.75;24.52;98831.47;5033658;28;20513;-79
2022/11/16 09:27:29;;;;;;;3.95;1.20;;;;;;;31.93;23.42;98831.19;5033172;28;20061;-79
2022/11/16 09:29:57;;;;;;;4.50;1.50;;;;;;;31.18;23.54;98834.72;5034666;28;20517;-81
2022/11/16 09:32:24;;;;;;;5.38;1.40;;;;;;;31.34;23.72;98831.31;5032417;28;20183;-78
2022/11/16 09:34:52;;;;;;;4.03;1.17;;;;;;;31.79;23.15;98840.69;5031688;28;20057;-78
2022/11/16 09:37:20;;;;;;;3.30;1.20;;;;;;;28.52;26.76;98850.78;5031372;28;20053;-78
2022/11/16 09:39:48;;;;;;;3.70;1.45;;;;;;;26.30;29.78;98840.28;5033029;28;20061;-79
2022/11/16 09:42:28;;;;;;;3.85;1.50;;;;;;;26.95;28.66;98846.53;5031735;28;20398;-78
2022/11/16 09:45:03;;;;;;;4.70;2.05;;;;;;;28.20;27.40;98844.34;5032489;28;20418;-78
2022/11/16 09:47:40;;;;;;;3.85;1.58;;;;;;;29.25;25.96;98846.19;5030238;28;20053;-78
2022/11/16 09:50:27;;;;;;;4.28;1.80;;;;;;;29.45;25.81;98851.41;5032250;28;20414;-82
2022/11/16 09:52:57;;;;;;;4.35;1.50;;;;;;;25.66;31.40;98851.78;5033092;28;20060;-83
2022/11/16 09:55:32;;;;;;;5.63;1.40;;;;;;;23.50;34.33;98871.97;5032351;28;20064;-82
2022/11/16 09:58:13;;;;;;;4.00;1.33;;;;;;;22.14;37.05;98869.03;5032017;28;20628;-81
2022/11/16 10:00:47;;;;;;;4.80;1.48;;;;;;;21.63;37.62;98860.56;5030943;28;20053;-81
2022/11/16 10:03:16;;;;;;;5.53;1.40;;;;;;;22.03;36.21;98862.75;5023046;28;20061;-82
2022/11/16 10:05:50;;;;;;;3.17;1.30;;;;;;;24.86;32.28;98855.44;5030518;28;20057;-80
2022/11/16 10:08:26;;;;;;;3.53;1.52;;;;;;;26.58;28.63;98860.53;5029250;28;20069;-79
2022/11/16 10:11:04;;;;;;;3.45;1.35;;;;;;;23.41;33.45;98866.06;5033263;28;20486;-80
2022/11/16 10:13:48;;;;;;;4.63;1.30;;;;;;;22.05;35.79;98871.63;5026261;28;20406;-80
2022/11/16 10:16:30;;;;;;;3.88;1.30;;;;;;;21.68;36.68;98870.63;5031373;28;20498;-80
2022/11/16 10:19:06;;;;;;;4.85;1.50;;;;;;;20.37;39.42;98874.69;5032029;28;20084;-81
2022/11/16 10:21:45;;;;;;;3.60;1.42;;;;;;;19.48;40.66;98886.31;5027689;28;20049;-79
2022/11/16 10:24:39;;;;;;;5.03;1.65;;;;;;;19.91;39.91;98881.59;5029935;28;20483;-79
2022/11/16 10:27:26;;;;;;;5.80;1.30;;;;;;;18.64;41.62;98878.66;5031296;28;20054;-79
2022/11/16 10:30:05;;;;;;;4.68;1.60;;;;;;;18.19;43.40;98875.56;5030280;28;20080;-79
2022/11/16 10:32:36;;;;;;;6.75;1.80;;;;;;;18.06;43.61;98874.41;5031244;28;20535;-80
2022/11/16 10:35:12;;;;;;;4.60;1.70;;;;;;;17.77;44.37;98870.75;5030750;28;20056;-80
2022/11/16 10:37:46;;;;;;;4.88;1.20;;;;;;;17.40;44.77;98875.53;5024400;28;20517;-80
2022/11/16 10:40:20;;;;;;;5.40;1.45;;;;;;;17.22;45.29;98869.88;5030163;28;20061;-79
2022/11/16 10:43:00;;;;;;;3.80;1.42;;;;;;;21.18;37.61;98857.97;5029972;28;20436;-76
2022/11/16 10:45:35;;;;;;;5.68;1.60;;;;;;;26.06;30.29;98837.84;5029595;28;20418;-79
2022/11/16 10:48:14;;;;;;;4.80;1.60;;;;;;;28.24;26.66;98844.19;5029396;28;20054;-77
2022/11/16 10:50:43;;;;;;;3.15;1.50;;;;;;;29.78;24.41;98834.22;5030007;28;21605;-79
2022/11/16 10:53:14;;;;;;;3.78;1.73;;;;;;;31.25;22.44;98828.56;5031378;28;20057;-78
2022/11/16 10:55:41;;;;;;;3.67;1.42;;;;;;;31.68;22.23;98831.88;5031891;28;20065;-78
2022/11/16 10:58:10;;;;;;;4.15;1.40;;;;;;;32.28;21.12;98821.75;5018527;28;20419;-76
2022/11/16 11:00:50;;;;;;;4.90;1.60;;;;;;;32.82;20.80;98812.66;5029765;28;20058;-78
2022/11/16 11:03:30;;;;;;;3.88;1.45;;;;;;;33.03;20.50;98807.63;5029950;28;20064;-80
2022/11/16 11:05:58;;;;;;;3.78;1.73;;;;;;;31.67;21.83;98808.06;5030766;28;20056;-80
2022/11/16 11:08:29;;;;;;;3.20;1.63;;;;;;;32.65;20.59;98797.28;5030879;28;20064;-80
2022/11/16 11:12:36;;;;;;;3.97;1.73;;;;;;;33.97;20.97;98800.22;5029955;28;20053;-80
2022/11/16 11:14:10;;;;;;;3.58;1.98;;;;;;;35.00;19.64;98795.59;5029199;28;20049;-79
2022/11/16 11:16:38;;;;;;;3.88;1.85;;;;;;;34.06;19.37;98792.66;5029578;28;20053;-80
2022/11/16 11:19:19;;;;;;;4.53;2.80;;;;;;;34.58;18.66;98792.34;5029193;28;20382;-79
2022/11/16 11:21:47;;;;;;;3.95;2.53;;;;;;;33.51;19.56;98786.78;5027747;28;20494;-79
2022/11/16 11:24:17;;;;;;;5.43;2.40;;;;;;;34.05;19.68;98782.41;5025999;28;20541;-79
2022/11/16 11:26:51;;;;;;;4.05;3.10;;;;;;;33.56;19.24;98782.38;5029406;28;20502;-78
2022/11/16 11:29:27;;;;;;;3.38;2.92;;;;;;;34.62;18.38;98777.63;5029973;28;20076;-77
2022/11/16 11:31:57;;;;;;;4.65;3.25;;;;;;;34.81;17.93;98784.53;5028255;28;20061;-78
2022/11/16 11:34:28;;;;;;;4.97;4.45;;;;;;;35.20;17.77;98785.91;5030946;28;20058;-77
2022/11/16 11:36:58;;;;;;;5.25;4.68;;;;;;;36.08;17.72;98783.41;5022175;28;20049;-78
2022/11/16 11:39:29;;;;;;;5.82;5.32;;;;;;;36.06;17.00;98788.94;5029819;28;20061;-76
2022/11/16 11:42:20;;;;;;;7.90;7.10;;;;;;;36.52;17.48;98775.06;5032555;28;20060;-76
2022/11/16 11:44:55;;;;;;;5.20;3.05;;;;;;;35.82;17.18;98777.94;5005335;28;20080;-78
2022/11/16 11:47:48;;;;;;;5.43;4.97;;;;;;;35.62;17.36;98775.34;5029617;28;20057;-79
2022/11/16 11:50:20;;;;;;;7.55;6.95;;;;;;;35.16;17.39;98768.81;5022934;28;20057;-79
2022/11/16 11:53:02;;;;;;;3.22;2.92;;;;;;;34.58;17.17;98758.44;5026576;28;20147;-79
2022/11/16 11:55:30;;;;;;;3.70;1.20;;;;;;;29.34;22.48;98768.75;5032433;28;20061;-80
2022/11/16 11:58:00;;;;;;;9.90;9.30;;;;;;;33.26;19.33;98758.81;5027902;28;20052;-81
2022/11/16 12:00:35;;;;;;;13.90;13.05;;;;;;;34.47;18.30;98757.63;5029688;28;20064;-82
2022/11/16 12:03:31;;;;;;;4.75;1.92;;;;;;;33.41;19.23;98761.53;5027471;28;20060;-81
2022/11/16 12:06:11;;;;;;;8.10;7.60;;;;;;;35.73;17.56;98752.16;5027071;28;20050;-84
2022/11/16 12:09:03;;;;;;;16.58;15.70;;;;;;;32.70;19.79;98762.75;5029702;28;20189;-83
2022/11/16 12:11:45;;;;;;;36.08;34.55;;;;;;;35.64;17.72;98755.31;5024961;28;20053;-81
2022/11/16 12:14:29;;;;;;;3.42;2.28;;;;;;;31.08;20.17;98757.16;5030213;28;20069;-83
2022/11/16 12:17:07;;;;;;;9.45;8.63;;;;;;;32.22;20.02;98757.50;5026355;28;20383;-82
2022/11/16 12:19:58;;;;;;;10.25;9.65;;;;;;;34.75;18.05;98752.72;5031090;28;20061;-82
2022/11/16 12:22:43;;;;;;;21.30;20.23;;;;;;;36.42;17.04;98753.47;5022670;28;20056;-83
2022/11/16 12:25:21;;;;;;;21.25;20.15;;;;;;;36.24;16.58;98752.78;5021590;28;20049;-83
2022/11/16 12:27:59;;;;;;;9.18;8.68;;;;;;;37.30;16.43;98750.50;5029133;28;20054;-82
2022/11/16 12:30:26;;;;;;;15.68;14.82;;;;;;;38.39;15.42;98745.84;5035342;28;20079;-83
2022/11/16 12:33:12;;;;;;;21.42;20.30;;;;;;;36.98;15.99;98741.50;5033641;28;20061;-83
2022/11/16 12:35:48;;;;;;;5.93;3.90;;;;;;;31.61;20.11;98751.72;5031960;28;20061;-83